Aviation Digital Data Service (ADDS)

Output produced by METARs form (1950 UTC 14 August 2018)
found at http://www.aviationweather.gov/adds/metars/
 
KUNV 141853Z 24005KT 7SM FEW010 SCT024 BKN040 21/17 A2993
KUNV 141753Z 21005KT 6SM BR FEW010 SCT024 BKN040 20/18 A2996
KUNV 141732Z 21005KT 6SM BR FEW010 SCT024 BKN045 20/18 A2995
KUNV 141653Z 27006KT 3SM -RA BR SCT010 BKN024 20/18 A2995
KUNV 141553Z 21004KT 6SM BR SCT010 BKN023 BKN045 21/19 A2995
KUNV 141453Z 21005KT 5SM -RA BR SCT009 BKN025 19/18 A2995
KUNV 141430Z 00000KT 4SM -RA BR SCT009 BKN025 19/18 A2995
KUNV 141353Z 00000KT 2SM -RA BR SCT009 BKN013 OVC030 19/17 A2995
KUNV 141253Z 00000KT 4SM -RA BR OVC030 19/17 A2995
KUNV 141153Z 28006KT 5SM -RA SCT008 OVC030 18/17 A2995
KUNV 141053Z 00000KT 3SM -RA BR BKN008 OVC040 19/18 A2995
KUNV 140953Z 24005KT 2SM -RA BR BKN007 OVC018 18/17 A2994
KUNV 140247Z 00000KT 4SM BR SCT030 BKN060 19/18 A2998
KUNV 140153Z 00000KT 7SM BKN029 BKN110 19/19 A2998
KUNV 140053Z COR 29004KT 7SM SCT025 BKN060 19/18 A2996
KUNV 132353Z 28004KT 4SM -RA BR SCT015 SCT027 BKN040 19/18 A2997
KUNV 132330Z 27004KT 4SM -RA BR SCT015 SCT027 BKN040 19/18 A2998
KUNV 132253Z 27004KT 10SM VCSH SCT015 SCT027 BKN040 20/18 A2997 RMK VIS W 4
KUNV 132153Z 30005KT 10SM VCSH SCT015 BKN035 20/18 A2997 RMK VIS NW 4 TSE2148
KUNV 132113Z 33005KT 10SM VCTS BKN025CB BKN040 21/19 A2996 RMK VIS NW 4 OCNL LTGCCOHD TSB2112 TS NW MOV SE
KUNV 132053Z 03012KT 10SM RA BKN020 BKN040 22/18 A2996
KUNV 131953Z 02008KT 10SM BKN030 BKN060 25/17 A2995
KUNV 131853Z 05010KT 10SM BKN030 BKN060 25/17 A2997
KUNV 131753Z 03007KT 10SM BKN030 BKN120 25/17 A3000
KUNV 131653Z 06008KT 10SM BKN030 BKN070 24/17 A3001
KUNV 131553Z 00000KT 10SM SCT030 BKN070 23/17 A3004
KUNV 131453Z 00000KT 10SM BKN030 22/17 A3007
KUNV 131353Z 00000KT 7SM SCT002 BKN030 20/16 A3005
KUNV 131253Z 30005KT 5SM -DZ SCT002 SCT012 BKN060 19/18 A3006 RMK VIS NE 2
KUNV 131153Z 00000KT 5SM -RA SCT003 SCT008 OVC030 19/17 A3007 RMK VIS S 3
KUNV 131053Z 00000KT 5SM BR SCT008 OVC030 19/17 A3006
KUNV 130953Z 00000KT 7SM OVC070 19/17 A3005